Nearby METAR Reports

 

KSJC - San Jose, California, USA
Distance from station: NO 14km
Uppdaterad: 13/06/2024 18:53
Few Clouds
Few Clouds
 Vind från varies
Vind: varies 7 km/h
Temperatur: 21°C
Daggpunkt: 11°C
Luftfuktighet: 53%
Barometer: 1013.9 hPa
Clouds: Few Clouds
Visibility: 16 km
Cloud details: Few Clouds 427 m
Few Clouds 3658 m
Few Clouds 4877 m
2024/06/13 16:53 KSJC 131653Z VRB04KT 10SM FEW014 FEW120 FEW160 21/11 A2994 RMK AO2 SLP137 T02110106
KNUQ - Moffett Nas/Mtn, California, USA
Distance from station: N 14km
Uppdaterad: 13/06/2024 18:55
Klart
Klart
 Vind från varies
Vind: varies 9 km/h
Temperatur: 18°C
Daggpunkt: 13°C
Luftfuktighet: 73%
Barometer: 1013.9 hPa
Clouds: Klart
Visibility: 14 km
2024/06/13 16:55 KNUQ 131655Z AUTO VRB05KT 9SM CLR 18/13 A2994 RMK AO2
KPAO - Palo Alto, California, USA
Distance from station: NNV 23km
Uppdaterad: 13/06/2024 18:47
Few Clouds
Few Clouds
 Vind från N
Vind: N 13 km/h
Temperatur: 17°C
Daggpunkt: 13°C
Luftfuktighet: 77%
Barometer: 1014.2 hPa
Clouds: Few Clouds
Visibility: 16 km
Cloud details: Few Clouds 457 m
2024/06/13 16:47 KPAO 131647Z 36007KT 10SM FEW015 17/13 A2995
 
KRHV - San Jose/Reid, California, USA
Distance from station: ONO 19km
Uppdaterad: 13/06/2024 18:47
Klart
Klart
 Vind från S
Vind: S 17 km/h
Temperatur: 18°C
Daggpunkt: 11°C
Luftfuktighet: 64%
Barometer: 1014.2 hPa
Clouds: Klart
Visibility: 16 km
2024/06/13 16:47 KRHV 131647Z 18009KT 10SM SKC 18/11 A2995
KOAK - Oakland, California, USA
Distance from station: NNV 50km
Uppdaterad: 13/06/2024 19:10
Delvis molnigt
Delvis molnigt
 Vind från VNV
Vind: VNV 17 km/h
Temperatur: 17°C
Daggpunkt: 11°C
Luftfuktighet: 68%
Barometer: 1014.6 hPa
Clouds: Delvis molnigt
Visibility: 16 km
Cloud details: Delvis molnigt 457 m
2024/06/13 17:10 KOAK 131710Z 29009KT 10SM SCT015 17/11 A2996 RMK AO2 T01720111
KSQL - San Carlos Airpo, California, USA
Distance from station: NV 34km
Uppdaterad: 13/06/2024 18:47
Few Clouds
Few Clouds
 Vind från V
Vind: V 19 km/h
Temperatur: 16°C
Daggpunkt: 10°C
Luftfuktighet: 68%
Barometer: 1014.6 hPa
Clouds: Few Clouds
Visibility: 16 km
Cloud details: Few Clouds 427 m
2024/06/13 16:47 KSQL 131647Z 28010KT 10SM FEW014 16/10 A2996
 
KSFO - San Francisco, California, USA
Distance from station: NV 49km
Uppdaterad: 13/06/2024 18:56
Few Clouds
Few Clouds
 Vind från NO
Vind: NO 6 km/h
Temperatur: 16°C
Daggpunkt: 11°C
Luftfuktighet: 72%
Barometer: 1014.2 hPa
Clouds: Few Clouds
Visibility: 16 km
Cloud details: Few Clouds 183 m
Few Clouds 396 m
2024/06/13 16:56 KSFO 131656Z 05003KT 10SM FEW006 FEW013 16/11 A2995 RMK AO2 SLP142 T01610106
KE16 - San Martin, California, USA
Distance from station: OSO 43km
Uppdaterad: 13/06/2024 18:55
Övervägande molnigt
Övervägande molnigt
 Vind från SO
Vind: SO 28 km/h
Temperatur: 15°C
Daggpunkt: 10°C
Luftfuktighet: 72%
Barometer: 1015.6 hPa
Clouds: Övervägande molnigt
Visibility: 13 km
Cloud details: Övervägande molnigt 396 m
2024/06/13 16:55 KE16 131655Z AUTO 13015KT 8SM BKN013 15/10 A2999 RMK AO2
KWVI - Watsonville, California, USA
Distance from station: SSO 44km
Uppdaterad: 13/06/2024 18:53
Genommulet
Genommulet
 Vind från SSV
Vind: SSV 7 km/h
Temperatur: 13°C
Daggpunkt: 11°C
Luftfuktighet: 88%
Barometer: 1016.3 hPa
Clouds: Genommulet
Visibility: 16 km
Cloud details: Genommulet 244 m
2024/06/13 16:53 KWVI 131653Z AUTO 21004KT 10SM OVC008 13/11 A3001 RMK AO2 SLP160 T01280106
 
KHAF - Half Moon Bay, California, USA
Distance from station: VNV 50km
Uppdaterad: 13/06/2024 18:55
Mist, Delvis molnigt
Mist, Delvis molnigt
 Vind från SV
Vind: SV 13 km/h
Temperatur: 11°C
Daggpunkt: 11°C
Luftfuktighet: 100%
Barometer: 1015.9 hPa
Summering: Mist
Clouds: Delvis molnigt
Visibility: 5 km
Cloud details: Few Clouds 244 m
Delvis molnigt 396 m
2024/06/13 16:55 KHAF 131655Z AUTO 23007KT 3SM BR FEW008 SCT013 11/11 A3000 RMK AO2
KHWD - Hayward, California, USA
Distance from station: N 44km
Uppdaterad: 13/06/2024 18:54
Klart
Klart
 Vind från V
Vind: V 17 km/h
Temperatur: 17°C
Daggpunkt: 10°C
Luftfuktighet: 64%
Barometer: 1014.2 hPa
Clouds: Klart
Visibility: 16 km
2024/06/13 16:54 KHWD 131654Z 26009KT 10SM CLR 17/10 A2995 RMK AO2 SLP150 T01720100
KLVK - Livermore, California, USA
Distance from station: NNO 51km
Uppdaterad: 13/06/2024 18:53
Klart
Klart
 Vind från VNV
Vind: VNV 15 km/h
Temperatur: 19°C
Daggpunkt: 12°C
Luftfuktighet: 64%
Barometer: 1013.2 hPa
Clouds: Klart
Visibility: 16 km
2024/06/13 16:53 KLVK 131653Z 29008KT 10SM CLR 19/12 A2992 RMK AO2 SLP128 T01940122